sensor_id;sensor_type;location;lat;lon;timestamp;pressure;altitude;pressure_sealevel;temperature;humidity
4586;BME280;2305;50.118;8.952;2024-01-27T00:01:19;102364.13;;;7.85;100.00
4586;BME280;2305;50.118;8.952;2024-01-27T00:03:48;102358.66;;;7.68;100.00
4586;BME280;2305;50.118;8.952;2024-01-27T00:06:17;102353.59;;;7.63;100.00
4586;BME280;2305;50.118;8.952;2024-01-27T00:08:46;102353.72;;;7.60;100.00
4586;BME280;2305;50.118;8.952;2024-01-27T00:11:15;102360.03;;;7.55;100.00
4586;BME280;2305;50.118;8.952;2024-01-27T00:13:44;102355.47;;;7.60;100.00
4586;BME280;2305;50.118;8.952;2024-01-27T00:16:13;102361.63;;;7.59;100.00
4586;BME280;2305;50.118;8.952;2024-01-27T00:18:41;102356.84;;;7.47;100.00
4586;BME280;2305;50.118;8.952;2024-01-27T00:21:10;102359.50;;;7.45;100.00
4586;BME280;2305;50.118;8.952;2024-01-27T00:23:38;102358.09;;;7.37;100.00
4586;BME280;2305;50.118;8.952;2024-01-27T00:26:10;102352.72;;;7.40;100.00
4586;BME280;2305;50.118;8.952;2024-01-27T00:28:39;102354.78;;;7.32;100.00
4586;BME280;2305;50.118;8.952;2024-01-27T00:31:07;102359.31;;;7.27;100.00
4586;BME280;2305;50.118;8.952;2024-01-27T00:33:36;102356.97;;;7.19;100.00
4586;BME280;2305;50.118;8.952;2024-01-27T00:36:05;102368.47;;;7.15;100.00
4586;BME280;2305;50.118;8.952;2024-01-27T00:38:35;102361.63;;;7.11;100.00
4586;BME280;2305;50.118;8.952;2024-01-27T00:41:03;102355.72;;;7.05;100.00
4586;BME280;2305;50.118;8.952;2024-01-27T00:43:34;102371.66;;;6.99;100.00
4586;BME280;2305;50.118;8.952;2024-01-27T00:46:03;102376.09;;;6.97;100.00
4586;BME280;2305;50.118;8.952;2024-01-27T00:48:31;102377.03;;;6.96;100.00
4586;BME280;2305;50.118;8.952;2024-01-27T00:50:59;102377.03;;;6.96;100.00
4586;BME280;2305;50.118;8.952;2024-01-27T00:53:28;102376.31;;;6.91;100.00
4586;BME280;2305;50.118;8.952;2024-01-27T00:55:56;102377.38;;;6.85;100.00
4586;BME280;2305;50.118;8.952;2024-01-27T00:58:24;102373.25;;;6.78;100.00
4586;BME280;2305;50.118;8.952;2024-01-27T01:00:52;102389.09;;;6.75;100.00
4586;BME280;2305;50.118;8.952;2024-01-27T01:03:21;102386.59;;;6.71;100.00
4586;BME280;2305;50.118;8.952;2024-01-27T01:05:49;102382.38;;;6.67;100.00
4586;BME280;2305;50.118;8.952;2024-01-27T01:08:18;102390.41;;;6.62;100.00
4586;BME280;2305;50.118;8.952;2024-01-27T01:10:46;102387.81;;;6.61;100.00
4586;BME280;2305;50.118;8.952;2024-01-27T01:13:14;102394.88;;;6.59;100.00
4586;BME280;2305;50.118;8.952;2024-01-27T01:15:44;102386.06;;;6.61;100.00
4586;BME280;2305;50.118;8.952;2024-01-27T01:18:14;102386.19;;;6.57;100.00
4586;BME280;2305;50.118;8.952;2024-01-27T01:20:44;102379.34;;;6.53;100.00
4586;BME280;2305;50.118;8.952;2024-01-27T01:23:14;102402.19;;;6.48;100.00
4586;BME280;2305;50.118;8.952;2024-01-27T01:25:44;102402.38;;;6.42;100.00
4586;BME280;2305;50.118;8.952;2024-01-27T01:28:14;102407.16;;;6.29;100.00
4586;BME280;2305;50.118;8.952;2024-01-27T01:30:42;102408.09;;;6.27;100.00
4586;BME280;2305;50.118;8.952;2024-01-27T01:33:11;102419.63;;;6.21;100.00
4586;BME280;2305;50.118;8.952;2024-01-27T01:35:40;102418.06;;;6.16;100.00
4586;BME280;2305;50.118;8.952;2024-01-27T01:38:09;102416.13;;;6.21;100.00
4586;BME280;2305;50.118;8.952;2024-01-27T01:40:38;102422.56;;;6.11;100.00
4586;BME280;2305;50.118;8.952;2024-01-27T01:43:09;102427.91;;;6.08;100.00
4586;BME280;2305;50.118;8.952;2024-01-27T01:45:39;102430.59;;;6.05;100.00
4586;BME280;2305;50.118;8.952;2024-01-27T01:48:07;102430.72;;;6.00;100.00
4586;BME280;2305;50.118;8.952;2024-01-27T01:50:37;102436.94;;;5.96;100.00
4586;BME280;2305;50.118;8.952;2024-01-27T01:53:06;102443.22;;;5.91;100.00
4586;BME280;2305;50.118;8.952;2024-01-27T01:55:36;102445.16;;;5.84;100.00
4586;BME280;2305;50.118;8.952;2024-01-27T01:58:05;102450.53;;;5.80;100.00
4586;BME280;2305;50.118;8.952;2024-01-27T02:00:33;102450.66;;;5.74;100.00
4586;BME280;2305;50.118;8.952;2024-01-27T02:03:03;102450.09;;;5.63;100.00
4586;BME280;2305;50.118;8.952;2024-01-27T02:05:34;102449.41;;;5.56;100.00
4586;BME280;2305;50.118;8.952;2024-01-27T02:08:02;102459.22;;;5.48;100.00
4586;BME280;2305;50.118;8.952;2024-01-27T02:10:31;102457.66;;;5.41;100.00
4586;BME280;2305;50.118;8.952;2024-01-27T02:13:16;102465.63;;;5.37;100.00
4586;BME280;2305;50.118;8.952;2024-01-27T02:15:44;102466.63;;;5.31;100.00
4586;BME280;2305;50.118;8.952;2024-01-27T02:18:15;102451.94;;;5.27;100.00
4586;BME280;2305;50.118;8.952;2024-01-27T02:20:44;102456.38;;;5.24;100.00
4586;BME280;2305;50.118;8.952;2024-01-27T02:23:12;102467.03;;;5.15;100.00
4586;BME280;2305;50.118;8.952;2024-01-27T02:25:42;102468.06;;;5.09;100.00
4586;BME280;2305;50.118;8.952;2024-01-27T02:28:10;102456.00;;;5.05;100.00
4586;BME280;2305;50.118;8.952;2024-01-27T02:30:39;102457.84;;;5.00;100.00
4586;BME280;2305;50.118;8.952;2024-01-27T02:33:08;102463.25;;;4.93;100.00
4586;BME280;2305;50.118;8.952;2024-01-27T02:35:36;102459.81;;;4.91;100.00
4586;BME280;2305;50.118;8.952;2024-01-27T02:38:04;102452.91;;;4.88;100.00
4586;BME280;2305;50.118;8.952;2024-01-27T02:40:32;102453.84;;;4.86;100.00
4586;BME280;2305;50.118;8.952;2024-01-27T02:43:04;102451.44;;;4.78;100.00
4586;BME280;2305;50.118;8.952;2024-01-27T02:45:32;102458.63;;;4.69;100.00
4586;BME280;2305;50.118;8.952;2024-01-27T02:48:00;102456.91;;;4.68;100.00
4586;BME280;2305;50.118;8.952;2024-01-27T02:50:29;102465.69;;;4.64;100.00
4586;BME280;2305;50.118;8.952;2024-01-27T02:52:57;102457.94;;;4.61;100.00
4586;BME280;2305;50.118;8.952;2024-01-27T02:55:26;102453.56;;;4.61;100.00
4586;BME280;2305;50.118;8.952;2024-01-27T02:57:54;102461.38;;;4.63;100.00
4586;BME280;2305;50.118;8.952;2024-01-27T03:00:23;102452.69;;;4.62;100.00
4586;BME280;2305;50.118;8.952;2024-01-27T03:02:51;102455.19;;;4.67;100.00
4586;BME280;2305;50.118;8.952;2024-01-27T03:05:19;102455.50;;;4.90;100.00
4586;BME280;2305;50.118;8.952;2024-01-27T03:07:47;102460.91;;;4.82;100.00
4586;BME280;2305;50.118;8.952;2024-01-27T03:10:16;102460.09;;;4.79;100.00
4586;BME280;2305;50.118;8.952;2024-01-27T03:12:45;102460.28;;;4.73;100.00
4586;BME280;2305;50.118;8.952;2024-01-27T03:15:14;102460.31;;;4.71;100.00
4586;BME280;2305;50.118;8.952;2024-01-27T03:17:45;102460.34;;;4.70;100.00
4586;BME280;2305;50.118;8.952;2024-01-27T03:20:15;102461.63;;;4.89;100.00
4586;BME280;2305;50.118;8.952;2024-01-27T03:22:43;102466.91;;;4.86;100.00
4586;BME280;2305;50.118;8.952;2024-01-27T03:25:12;102474.91;;;4.80;100.00
4586;BME280;2305;50.118;8.952;2024-01-27T03:27:40;102472.47;;;4.72;100.00
4586;BME280;2305;50.118;8.952;2024-01-27T03:30:09;102466.22;;;4.41;100.00
4586;BME280;2305;50.118;8.952;2024-01-27T03:32:37;102475.19;;;4.30;100.00
4586;BME280;2305;50.118;8.952;2024-01-27T03:35:09;102478.72;;;4.28;100.00
4586;BME280;2305;50.118;8.952;2024-01-27T03:37:37;102470.03;;;4.25;100.00
4586;BME280;2305;50.118;8.952;2024-01-27T03:40:06;102477.97;;;4.21;100.00
4586;BME280;2305;50.118;8.952;2024-01-27T03:42:35;102476.28;;;4.18;100.00
4586;BME280;2305;50.118;8.952;2024-01-27T03:45:03;102477.25;;;4.15;100.00
4586;BME280;2305;50.118;8.952;2024-01-27T03:47:32;102475.19;;;4.30;100.00
4586;BME280;2305;50.118;8.952;2024-01-27T03:50:00;102473.53;;;4.26;100.00
4586;BME280;2305;50.118;8.952;2024-01-27T03:52:32;102473.53;;;4.26;100.00
4586;BME280;2305;50.118;8.952;2024-01-27T03:55:00;102475.22;;;4.28;100.00
4586;BME280;2305;50.118;8.952;2024-01-27T03:57:29;102465.56;;;4.32;100.00
4586;BME280;2305;50.118;8.952;2024-01-27T03:59:57;102470.69;;;4.36;100.00
4586;BME280;2305;50.118;8.952;2024-01-27T04:02:25;102473.81;;;4.52;100.00
4586;BME280;2305;50.118;8.952;2024-01-27T04:04:55;102478.72;;;4.65;100.00
4586;BME280;2305;50.118;8.952;2024-01-27T04:07:24;102482.56;;;4.49;100.00
4586;BME280;2305;50.118;8.952;2024-01-27T04:09:53;102483.59;;;4.42;100.00
4586;BME280;2305;50.118;8.952;2024-01-27T04:12:23;102478.50;;;4.38;100.00
4586;BME280;2305;50.118;8.952;2024-01-27T04:14:51;102492.47;;;4.35;100.00
4586;BME280;2305;50.118;8.952;2024-01-27T04:17:19;102489.97;;;4.29;100.00
4586;BME280;2305;50.118;8.952;2024-01-27T04:19:47;102494.50;;;4.22;100.00
4586;BME280;2305;50.118;8.952;2024-01-27T04:22:15;102496.41;;;4.14;100.00
4586;BME280;2305;50.118;8.952;2024-01-27T04:24:44;102496.53;;;4.08;100.00
4586;BME280;2305;50.118;8.952;2024-01-27T04:27:14;102502.84;;;3.96;100.00
4586;BME280;2305;50.118;8.952;2024-01-27T04:29:44;102517.72;;;3.91;100.00
4586;BME280;2305;50.118;8.952;2024-01-27T04:32:13;102516.94;;;3.86;100.00
4586;BME280;2305;50.118;8.952;2024-01-27T04:34:41;102513.59;;;3.81;100.00
4586;BME280;2305;50.118;8.952;2024-01-27T04:37:09;102509.41;;;3.71;100.00
4586;BME280;2305;50.118;8.952;2024-01-27T04:39:39;102507.88;;;3.61;100.00
4586;BME280;2305;50.118;8.952;2024-01-27T04:42:08;102496.69;;;3.55;100.00
4586;BME280;2305;50.118;8.952;2024-01-27T04:44:41;102506.34;;;3.50;100.00
4586;BME280;2305;50.118;8.952;2024-01-27T04:47:09;102514.25;;;3.45;100.00
4586;BME280;2305;50.118;8.952;2024-01-27T04:49:37;102511.69;;;3.41;100.00
4586;BME280;2305;50.118;8.952;2024-01-27T04:52:08;102514.47;;;3.33;100.00
4586;BME280;2305;50.118;8.952;2024-01-27T04:54:37;102519.69;;;3.30;100.00
4586;BME280;2305;50.118;8.952;2024-01-27T04:57:04;102522.38;;;3.26;100.00
4586;BME280;2305;50.118;8.952;2024-01-27T04:59:33;102525.94;;;3.22;100.00
4586;BME280;2305;50.118;8.952;2024-01-27T05:02:02;102530.44;;;3.12;100.00
4586;BME280;2305;50.118;8.952;2024-01-27T05:04:30;102539.16;;;3.11;100.00
4586;BME280;2305;50.118;8.952;2024-01-27T05:06:59;102534.84;;;3.09;100.00
4586;BME280;2305;50.118;8.952;2024-01-27T05:09:27;102539.28;;;3.02;100.00
4586;BME280;2305;50.118;8.952;2024-01-27T05:11:55;102537.53;;;3.01;100.00
4586;BME280;2305;50.118;8.952;2024-01-27T05:14:24;102543.63;;;3.03;100.00
4586;BME280;2305;50.118;8.952;2024-01-27T05:16:52;102547.97;;;3.01;100.00
4586;BME280;2305;50.118;8.952;2024-01-27T05:19:21;102546.31;;;2.97;100.00
4586;BME280;2305;50.118;8.952;2024-01-27T05:21:50;102545.50;;;2.94;100.00
4586;BME280;2305;50.118;8.952;2024-01-27T05:24:18;102556.91;;;2.84;100.00
4586;BME280;2305;50.118;8.952;2024-01-27T05:26:47;102551.78;;;2.79;100.00
4586;BME280;2305;50.118;8.952;2024-01-27T05:29:16;102553.56;;;2.76;100.00
4586;BME280;2305;50.118;8.952;2024-01-27T05:31:44;102563.06;;;2.78;100.00
4586;BME280;2305;50.118;8.952;2024-01-27T05:34:13;102568.41;;;2.71;100.00
4586;BME280;2305;50.118;8.952;2024-01-27T05:36:45;102566.75;;;2.64;100.00
4586;BME280;2305;50.118;8.952;2024-01-27T05:39:13;102564.19;;;2.59;100.00
4586;BME280;2305;50.118;8.952;2024-01-27T05:41:41;102565.06;;;2.58;100.00
4586;BME280;2305;50.118;8.952;2024-01-27T05:44:11;102565.13;;;2.55;100.00
4586;BME280;2305;50.118;8.952;2024-01-27T05:46:40;102565.13;;;2.54;100.00
4586;BME280;2305;50.118;8.952;2024-01-27T05:49:08;102562.47;;;2.58;100.00
4586;BME280;2305;50.118;8.952;2024-01-27T05:51:36;102568.56;;;2.57;100.00
4586;BME280;2305;50.118;8.952;2024-01-27T05:54:14;102569.44;;;2.56;100.00
4586;BME280;2305;50.118;8.952;2024-01-27T05:56:50;102574.66;;;2.56;100.00
4586;BME280;2305;50.118;8.952;2024-01-27T05:59:18;102577.25;;;2.58;100.00
4586;BME280;2305;50.118;8.952;2024-01-27T06:01:46;102572.94;;;2.55;100.00
4586;BME280;2305;50.118;8.952;2024-01-27T06:04:14;102583.41;;;2.51;100.00
4586;BME280;2305;50.118;8.952;2024-01-27T06:06:42;102575.63;;;2.48;100.00
4586;BME280;2305;50.118;8.952;2024-01-27T06:09:12;102582.66;;;2.40;100.00
4586;BME280;2305;50.118;8.952;2024-01-27T06:11:40;102590.47;;;2.40;100.00
4586;BME280;2305;50.118;8.952;2024-01-27T06:14:08;102587.09;;;2.30;100.00
4586;BME280;2305;50.118;8.952;2024-01-27T06:16:36;102598.47;;;2.23;100.00
4586;BME280;2305;50.118;8.952;2024-01-27T06:19:04;102593.22;;;2.28;100.00
4586;BME280;2305;50.118;8.952;2024-01-27T06:21:32;102592.28;;;2.32;100.00
4586;BME280;2305;50.118;8.952;2024-01-27T06:24:02;102599.22;;;2.34;100.00
4586;BME280;2305;50.118;8.952;2024-01-27T06:26:33;102587.94;;;2.34;100.00
4586;BME280;2305;50.118;8.952;2024-01-27T06:29:01;102591.41;;;2.33;100.00
4586;BME280;2305;50.118;8.952;2024-01-27T06:31:29;102595.72;;;2.35;100.00
4586;BME280;2305;50.118;8.952;2024-01-27T06:33:57;102597.41;;;2.39;100.00
4586;BME280;2305;50.118;8.952;2024-01-27T06:36:26;102601.72;;;2.42;100.00
4586;BME280;2305;50.118;8.952;2024-01-27T06:38:54;102601.69;;;2.43;100.00
4586;BME280;2305;50.118;8.952;2024-01-27T06:41:22;102606.00;;;2.46;100.00
4586;BME280;2305;50.118;8.952;2024-01-27T06:43:51;102609.47;;;2.46;100.00
4586;BME280;2305;50.118;8.952;2024-01-27T06:46:25;102614.69;;;2.43;100.00
4586;BME280;2305;50.118;8.952;2024-01-27T06:48:55;102612.16;;;2.40;100.00
4586;BME280;2305;50.118;8.952;2024-01-27T06:51:25;102617.34;;;2.40;100.00
4586;BME280;2305;50.118;8.952;2024-01-27T06:53:53;102625.16;;;2.42;100.00
4586;BME280;2305;50.118;8.952;2024-01-27T06:56:23;102631.19;;;2.42;100.00
4586;BME280;2305;50.118;8.952;2024-01-27T06:58:59;102632.13;;;2.38;100.00
4586;BME280;2305;50.118;8.952;2024-01-27T07:01:28;102646.91;;;2.33;100.00
4586;BME280;2305;50.118;8.952;2024-01-27T07:03:57;102641.72;;;2.32;100.00
4586;BME280;2305;50.118;8.952;2024-01-27T07:06:29;102634.84;;;2.28;100.00
4586;BME280;2305;50.118;8.952;2024-01-27T07:09:00;102634.03;;;2.23;100.00
4586;BME280;2305;50.118;8.952;2024-01-27T07:11:34;102634.91;;;2.22;100.00
4586;BME280;2305;50.118;8.952;2024-01-27T07:14:08;102647.81;;;2.29;100.00
4586;BME280;2305;50.118;8.952;2024-01-27T07:16:36;102641.75;;;2.29;100.00
4586;BME280;2305;50.118;8.952;2024-01-27T07:19:05;102634.81;;;2.29;100.00
4586;BME280;2305;50.118;8.952;2024-01-27T07:21:34;102635.69;;;2.30;100.00
4586;BME280;2305;50.118;8.952;2024-01-27T07:24:04;102633.06;;;2.30;100.00
4586;BME280;2305;50.118;8.952;2024-01-27T07:26:32;102623.50;;;2.30;100.00
4586;BME280;2305;50.118;8.952;2024-01-27T07:29:00;102632.19;;;2.32;100.00
4586;BME280;2305;50.118;8.952;2024-01-27T07:31:30;102625.28;;;2.31;100.00
4586;BME280;2305;50.118;8.952;2024-01-27T07:33:59;102620.91;;;2.30;100.00
4586;BME280;2305;50.118;8.952;2024-01-27T07:36:27;102615.72;;;2.32;100.00
4586;BME280;2305;50.118;8.952;2024-01-27T07:39:04;102617.47;;;2.31;100.00
4586;BME280;2305;50.118;8.952;2024-01-27T07:41:32;102620.91;;;2.35;100.00
4586;BME280;2305;50.118;8.952;2024-01-27T07:44:07;102620.84;;;2.38;100.00
4586;BME280;2305;50.118;8.952;2024-01-27T07:46:37;102632.97;;;2.39;100.00
4586;BME280;2305;50.118;8.952;2024-01-27T07:49:08;102631.25;;;2.36;100.00
4586;BME280;2305;50.118;8.952;2024-01-27T07:51:36;102631.25;;;2.39;100.00
4586;BME280;2305;50.118;8.952;2024-01-27T07:54:07;102635.50;;;2.43;100.00
4586;BME280;2305;50.118;8.952;2024-01-27T07:56:35;102630.25;;;2.48;100.00
4586;BME280;2305;50.118;8.952;2024-01-27T07:59:08;102642.31;;;2.56;100.00
4586;BME280;2305;50.118;8.952;2024-01-27T08:01:41;102647.44;;;2.61;100.00
4586;BME280;2305;50.118;8.952;2024-01-27T08:04:10;102650.00;;;2.65;100.00
4586;BME280;2305;50.118;8.952;2024-01-27T08:06:46;102653.47;;;2.67;100.00
4586;BME280;2305;50.118;8.952;2024-01-27T08:09:14;102652.50;;;2.73;100.00
4586;BME280;2305;50.118;8.952;2024-01-27T08:11:42;102648.13;;;2.76;100.00
4586;BME280;2305;50.118;8.952;2024-01-27T08:14:11;102648.91;;;2.83;100.00
4586;BME280;2305;50.118;8.952;2024-01-27T08:16:42;102651.41;;;2.90;100.00
4586;BME280;2305;50.118;8.952;2024-01-27T08:19:10;102650.47;;;2.94;100.00
4586;BME280;2305;50.118;8.952;2024-01-27T08:21:38;102644.31;;;3.01;100.00
4586;BME280;2305;50.118;8.952;2024-01-27T08:24:06;102653.75;;;3.08;100.00
4586;BME280;2305;50.118;8.952;2024-01-27T08:26:34;102660.59;;;3.18;100.00
4586;BME280;2305;50.118;8.952;2024-01-27T08:29:02;102661.34;;;3.26;100.00
4586;BME280;2305;50.118;8.952;2024-01-27T08:31:30;102649.97;;;3.30;100.00
4586;BME280;2305;50.118;8.952;2024-01-27T08:34:00;102665.50;;;3.36;100.00
4586;BME280;2305;50.118;8.952;2024-01-27T08:36:28;102668.91;;;3.43;100.00
4586;BME280;2305;50.118;8.952;2024-01-27T08:38:59;102669.66;;;3.49;100.00
4586;BME280;2305;50.118;8.952;2024-01-27T08:41:27;102674.78;;;3.55;100.00
4586;BME280;2305;50.118;8.952;2024-01-27T08:43:58;102667.75;;;3.60;100.00
4586;BME280;2305;50.118;8.952;2024-01-27T08:46:30;102669.34;;;3.69;100.00
4586;BME280;2305;50.118;8.952;2024-01-27T08:49:02;102674.44;;;3.78;100.00
4586;BME280;2305;50.118;8.952;2024-01-27T08:51:32;102672.63;;;3.81;100.00
4586;BME280;2305;50.118;8.952;2024-01-27T08:54:01;102672.47;;;3.90;100.00
4586;BME280;2305;50.118;8.952;2024-01-27T08:56:30;102671.53;;;3.94;100.00
4586;BME280;2305;50.118;8.952;2024-01-27T08:58:59;102668.88;;;3.99;100.00
4586;BME280;2305;50.118;8.952;2024-01-27T09:01:29;102673.94;;;4.06;100.00
4586;BME280;2305;50.118;8.952;2024-01-27T09:04:02;102678.97;;;4.15;100.00
4586;BME280;2305;50.118;8.952;2024-01-27T09:06:30;102681.44;;;4.24;100.00
4586;BME280;2305;50.118;8.952;2024-01-27T09:09:02;102676.06;;;4.33;100.00
4586;BME280;2305;50.118;8.952;2024-01-27T09:11:30;102681.06;;;4.45;100.00
4586;BME280;2305;50.118;8.952;2024-01-27T09:14:00;102679.56;;;4.76;100.00
4586;BME280;2305;50.118;8.952;2024-01-27T09:16:32;102684.63;;;4.83;100.00
4586;BME280;2305;50.118;8.952;2024-01-27T09:19:02;102682.03;;;4.82;100.00
4586;BME280;2305;50.118;8.952;2024-01-27T09:21:32;102688.97;;;4.83;100.00
4586;BME280;2305;50.118;8.952;2024-01-27T09:24:00;102689.00;;;4.81;100.00
4586;BME280;2305;50.118;8.952;2024-01-27T09:26:31;102688.88;;;4.87;100.00
4586;BME280;2305;50.118;8.952;2024-01-27T09:28:59;102688.75;;;4.95;100.00
4586;BME280;2305;50.118;8.952;2024-01-27T09:31:27;102686.94;;;4.98;100.00
4586;BME280;2305;50.118;8.952;2024-01-27T09:33:55;102686.25;;;5.28;100.00
4586;BME280;2305;50.118;8.952;2024-01-27T09:36:27;102690.00;;;5.17;100.00
4586;BME280;2305;50.118;8.952;2024-01-27T09:38:55;102679.22;;;5.32;100.00
4586;BME280;2305;50.118;8.952;2024-01-27T09:41:29;102680.34;;;5.20;100.00
4586;BME280;2305;50.118;8.952;2024-01-27T09:44:04;102694.22;;;5.22;100.00
4586;BME280;2305;50.118;8.952;2024-01-27T09:46:34;102697.53;;;5.30;100.00
4586;BME280;2305;50.118;8.952;2024-01-27T09:49:03;102705.34;;;5.32;100.00
4586;BME280;2305;50.118;8.952;2024-01-27T09:51:33;102707.72;;;5.42;100.00
4586;BME280;2305;50.118;8.952;2024-01-27T09:54:02;102699.75;;;5.48;100.00
4586;BME280;2305;50.118;8.952;2024-01-27T09:56:30;102703.97;;;5.54;100.00
4586;BME280;2305;50.118;8.952;2024-01-27T09:59:00;102710.78;;;5.61;100.00
4586;BME280;2305;50.118;8.952;2024-01-27T10:01:29;102695.16;;;5.58;100.00
4586;BME280;2305;50.118;8.952;2024-01-27T10:04:03;102699.28;;;5.68;100.00
4586;BME280;2305;50.118;8.952;2024-01-27T10:06:35;102697.25;;;5.79;100.00
4586;BME280;2305;50.118;8.952;2024-01-27T10:09:03;102695.63;;;5.75;100.00
4586;BME280;2305;50.118;8.952;2024-01-27T10:11:36;102700.75;;;5.81;100.00
4586;BME280;2305;50.118;8.952;2024-01-27T10:14:07;102698.69;;;5.93;100.00
4586;BME280;2305;50.118;8.952;2024-01-27T10:16:40;102699.28;;;6.04;100.00
4586;BME280;2305;50.118;8.952;2024-01-27T10:19:12;102703.47;;;6.11;100.00
4586;BME280;2305;50.118;8.952;2024-01-27T10:21:45;102708.31;;;6.26;100.00
4586;BME280;2305;50.118;8.952;2024-01-27T10:24:14;102692.31;;;6.37;100.00
4586;BME280;2305;50.118;8.952;2024-01-27T10:26:42;102698.34;;;6.40;100.00
4586;BME280;2305;50.118;8.952;2024-01-27T10:29:12;102691.13;;;6.48;100.00
4586;BME280;2305;50.118;8.952;2024-01-27T10:31:39;102695.84;;;6.66;100.00
4586;BME280;2305;50.118;8.952;2024-01-27T10:34:09;102693.31;;;6.63;100.00
4586;BME280;2305;50.118;8.952;2024-01-27T10:36:44;102684.00;;;6.84;100.00
4586;BME280;2305;50.118;8.952;2024-01-27T10:39:17;102693.63;;;6.83;100.00
4586;BME280;2305;50.118;8.952;2024-01-27T10:41:50;102684.78;;;6.87;100.00
4586;BME280;2305;50.118;8.952;2024-01-27T10:44:20;102678.13;;;7.05;100.00
4586;BME280;2305;50.118;8.952;2024-01-27T10:46:49;102682.41;;;7.09;100.00
4586;BME280;2305;50.118;8.952;2024-01-27T10:49:18;102676.22;;;7.11;100.00
4586;BME280;2305;50.118;8.952;2024-01-27T10:51:53;102676.50;;;7.30;100.00
4586;BME280;2305;50.118;8.952;2024-01-27T10:54:25;102662.53;;;7.29;100.00
4586;BME280;2305;50.118;8.952;2024-01-27T10:56:57;102657.91;;;7.37;100.00
4586;BME280;2305;50.118;8.952;2024-01-27T10:59:30;102652.94;;;7.28;100.00
4586;BME280;2305;50.118;8.952;2024-01-27T11:02:00;102649.81;;;7.45;100.00
4586;BME280;2305;50.118;8.952;2024-01-27T11:04:29;102641.41;;;7.61;100.00
4586;BME280;2305;50.118;8.952;2024-01-27T11:07:04;102643.06;;;7.64;100.00
4586;BME280;2305;50.118;8.952;2024-01-27T11:09:36;102629.88;;;7.65;100.00
4586;BME280;2305;50.118;8.952;2024-01-27T11:12:08;102623.06;;;7.86;100.00
4586;BME280;2305;50.118;8.952;2024-01-27T11:14:36;102613.06;;;7.97;100.00
4586;BME280;2305;50.118;8.952;2024-01-27T11:17:08;102612.47;;;7.89;100.00
4586;BME280;2305;50.118;8.952;2024-01-27T11:19:39;102617.09;;;8.07;100.00
4586;BME280;2305;50.118;8.952;2024-01-27T11:22:23;102620.47;;;8.35;100.00
4586;BME280;2305;50.118;8.952;2024-01-27T11:25:06;102617.78;;;8.36;100.00
4586;BME280;2305;50.118;8.952;2024-01-27T11:27:34;102616.22;;;8.32;100.00
4586;BME280;2305;50.118;8.952;2024-01-27T11:30:06;102608.84;;;8.42;100.00
4586;BME280;2305;50.118;8.952;2024-01-27T11:32:55;102604.97;;;8.52;100.00
4586;BME280;2305;50.118;8.952;2024-01-27T11:35:24;102600.25;;;8.61;100.00
4586;BME280;2305;50.118;8.952;2024-01-27T11:37:54;102600.28;;;8.60;100.00
4586;BME280;2305;50.118;8.952;2024-01-27T11:40:22;102603.44;;;8.69;100.00
4586;BME280;2305;50.118;8.952;2024-01-27T11:42:54;102610.78;;;8.82;100.00
4586;BME280;2305;50.118;8.952;2024-01-27T11:45:24;102613.00;;;8.93;100.00
4586;BME280;2305;50.118;8.952;2024-01-27T11:47:53;102616.47;;;8.95;100.00
4586;BME280;2305;50.118;8.952;2024-01-27T11:50:27;102616.09;;;9.04;100.00
4586;BME280;2305;50.118;8.952;2024-01-27T11:52:57;102624.78;;;9.06;100.00
4586;BME280;2305;50.118;8.952;2024-01-27T11:55:25;102613.84;;;9.16;100.00
4586;BME280;2305;50.118;8.952;2024-01-27T11:57:53;102613.56;;;9.24;100.00
4586;BME280;2305;50.118;8.952;2024-01-27T12:00:21;102618.38;;;9.34;100.00
4586;BME280;2305;50.118;8.952;2024-01-27T12:02:50;102622.34;;;9.44;100.00
4586;BME280;2305;50.118;8.952;2024-01-27T12:05:19;102626.41;;;9.53;100.00
4586;BME280;2305;50.118;8.952;2024-01-27T12:07:53;102628.78;;;9.59;100.00
4586;BME280;2305;50.118;8.952;2024-01-27T12:10:23;102638.88;;;9.48;100.00
4586;BME280;2305;50.118;8.952;2024-01-27T12:12:51;102632.75;;;9.69;100.00
4586;BME280;2305;50.118;8.952;2024-01-27T12:15:20;102639.31;;;9.79;100.00
4586;BME280;2305;50.118;8.952;2024-01-27T12:17:50;102634.59;;;9.87;100.00
4586;BME280;2305;50.118;8.952;2024-01-27T12:20:19;102636.00;;;9.95;100.00
4586;BME280;2305;50.118;8.952;2024-01-27T12:22:48;102633.91;;;10.03;100.00
4586;BME280;2305;50.118;8.952;2024-01-27T12:25:22;102629.72;;;10.19;100.00
4586;BME280;2305;50.118;8.952;2024-01-27T12:27:51;102639.88;;;10.28;100.00
4586;BME280;2305;50.118;8.952;2024-01-27T12:30:23;102632.59;;;10.33;100.00
4586;BME280;2305;50.118;8.952;2024-01-27T12:32:51;102634.19;;;10.37;100.00
4586;BME280;2305;50.118;8.952;2024-01-27T12:35:20;102626.06;;;10.42;100.00
4586;BME280;2305;50.118;8.952;2024-01-27T12:37:49;102626.44;;;10.34;100.00
4586;BME280;2305;50.118;8.952;2024-01-27T12:40:21;102614.34;;;10.49;100.00
4586;BME280;2305;50.118;8.952;2024-01-27T12:42:53;102613.56;;;10.47;100.00
4586;BME280;2305;50.118;8.952;2024-01-27T12:45:24;102609.28;;;10.63;100.00
4586;BME280;2305;50.118;8.952;2024-01-27T12:47:56;102604.94;;;10.62;100.00
4586;BME280;2305;50.118;8.952;2024-01-27T12:50:26;102607.53;;;10.82;100.00
4586;BME280;2305;50.118;8.952;2024-01-27T12:52:54;102606.59;;;10.83;100.00
4586;BME280;2305;50.118;8.952;2024-01-27T12:55:22;102597.34;;;10.93;100.00
4586;BME280;2305;50.118;8.952;2024-01-27T12:57:50;102592.25;;;11.07;100.00
4586;BME280;2305;50.118;8.952;2024-01-27T13:00:20;102581.28;;;11.16;100.00
4586;BME280;2305;50.118;8.952;2024-01-27T13:02:49;102580.63;;;11.29;100.00
4586;BME280;2305;50.118;8.952;2024-01-27T13:05:18;102585.31;;;11.41;100.00
4586;BME280;2305;50.118;8.952;2024-01-27T13:07:48;102590.75;;;11.55;97.93
4586;BME280;2305;50.118;8.952;2024-01-27T13:10:16;102579.38;;;11.72;99.31
4586;BME280;2305;50.118;8.952;2024-01-27T13:12:45;102579.06;;;11.78;97.22
4586;BME280;2305;50.118;8.952;2024-01-27T13:15:15;102587.00;;;11.95;95.03
4586;BME280;2305;50.118;8.952;2024-01-27T13:17:47;102581.94;;;11.90;93.21
4586;BME280;2305;50.118;8.952;2024-01-27T13:20:16;102565.44;;;12.02;87.65
4586;BME280;2305;50.118;8.952;2024-01-27T13:22:46;102565.69;;;11.98;89.88